sensor_id;sensor_type;location;lat;lon;timestamp;pressure;altitude;pressure_sealevel;temperature;humidity
50310;BME280;36207;51.850;21.698;2023-04-01T00:01:15;97999.06;;;9.60;78.28
50310;BME280;36207;51.850;21.698;2023-04-01T00:03:42;98002.41;;;9.58;78.65
50310;BME280;36207;51.850;21.698;2023-04-01T00:06:10;98001.94;;;9.56;78.64
50310;BME280;36207;51.850;21.698;2023-04-01T00:08:37;98001.52;;;9.53;78.55
50310;BME280;36207;51.850;21.698;2023-04-01T00:11:03;98000.79;;;9.48;79.02
50310;BME280;36207;51.850;21.698;2023-04-01T00:13:29;98003.33;;;9.45;78.64
50310;BME280;36207;51.850;21.698;2023-04-01T00:15:55;98004.56;;;9.44;78.57
50310;BME280;36207;51.850;21.698;2023-04-01T00:18:22;98009.90;;;9.43;78.88
50310;BME280;36207;51.850;21.698;2023-04-01T00:20:49;98006.52;;;9.40;79.61
50310;BME280;36207;51.850;21.698;2023-04-01T00:23:17;98007.95;;;9.36;79.12
50310;BME280;36207;51.850;21.698;2023-04-01T00:25:44;98000.12;;;9.33;79.43
50310;BME280;36207;51.850;21.698;2023-04-01T00:28:10;97988.77;;;9.33;79.04
50310;BME280;36207;51.850;21.698;2023-04-01T00:30:37;97988.84;;;9.31;78.69
50310;BME280;36207;51.850;21.698;2023-04-01T00:33:03;97987.79;;;9.30;78.84
50310;BME280;36207;51.850;21.698;2023-04-01T00:35:29;97987.86;;;9.26;78.86
50310;BME280;36207;51.850;21.698;2023-04-01T00:37:55;97986.48;;;9.20;79.16
50310;BME280;36207;51.850;21.698;2023-04-01T00:40:34;97984.92;;;9.16;79.50
50310;BME280;36207;51.850;21.698;2023-04-01T00:43:01;97987.27;;;9.15;79.22
50310;BME280;36207;51.850;21.698;2023-04-01T00:45:37;97986.42;;;9.13;79.29
50310;BME280;36207;51.850;21.698;2023-04-01T00:48:30;97980.63;;;9.12;79.28
50310;BME280;36207;51.850;21.698;2023-04-01T00:51:13;97980.81;;;9.09;79.45
50310;BME280;36207;51.850;21.698;2023-04-01T00:53:45;97982.70;;;9.08;79.38
50310;BME280;36207;51.850;21.698;2023-04-01T00:56:35;97985.09;;;9.08;79.30
50310;BME280;36207;51.850;21.698;2023-04-01T00:59:25;97987.16;;;9.08;79.27
50310;BME280;36207;51.850;21.698;2023-04-01T01:01:51;97988.20;;;9.04;78.96
50310;BME280;36207;51.850;21.698;2023-04-01T01:26:31;97982.65;;;8.91;79.76
50310;BME280;36207;51.850;21.698;2023-04-01T01:35:19;97975.44;;;8.97;79.71
50310;BME280;36207;51.850;21.698;2023-04-01T01:37:48;97973.70;;;8.99;79.44
50310;BME280;36207;51.850;21.698;2023-04-01T01:40:16;97974.79;;;9.02;79.90
50310;BME280;36207;51.850;21.698;2023-04-01T01:42:48;97978.89;;;9.04;79.70
50310;BME280;36207;51.850;21.698;2023-04-01T01:45:18;97972.79;;;9.08;79.70
50310;BME280;36207;51.850;21.698;2023-04-01T01:47:47;97963.96;;;9.12;79.59
50310;BME280;36207;51.850;21.698;2023-04-01T01:50:15;97961.85;;;9.14;79.50
50310;BME280;36207;51.850;21.698;2023-04-01T01:52:45;97960.55;;;9.15;79.36
50310;BME280;36207;51.850;21.698;2023-04-01T01:55:33;97961.15;;;9.17;79.38
50310;BME280;36207;51.850;21.698;2023-04-01T02:00:57;97962.93;;;9.24;79.36
50310;BME280;36207;51.850;21.698;2023-04-01T02:03:28;97958.70;;;9.23;79.32
50310;BME280;36207;51.850;21.698;2023-04-01T02:05:57;97956.27;;;9.25;79.24
50310;BME280;36207;51.850;21.698;2023-04-01T02:08:45;97953.92;;;9.27;79.18
50310;BME280;36207;51.850;21.698;2023-04-01T02:11:16;97947.57;;;9.27;79.05
50310;BME280;36207;51.850;21.698;2023-04-01T02:13:51;97944.79;;;9.27;78.97
50310;BME280;36207;51.850;21.698;2023-04-01T02:16:23;97944.97;;;9.29;78.99
50310;BME280;36207;51.850;21.698;2023-04-01T02:18:53;97949.25;;;9.31;79.04
50310;BME280;36207;51.850;21.698;2023-04-01T02:21:22;97943.80;;;9.28;78.87
50310;BME280;36207;51.850;21.698;2023-04-01T02:23:51;97941.18;;;9.27;78.83
50310;BME280;36207;51.850;21.698;2023-04-01T02:26:19;97932.70;;;9.26;78.81
50310;BME280;36207;51.850;21.698;2023-04-01T02:28:46;97927.35;;;9.25;78.72
50310;BME280;36207;51.850;21.698;2023-04-01T02:31:14;97925.31;;;9.24;78.61
50310;BME280;36207;51.850;21.698;2023-04-01T02:33:41;97926.21;;;9.23;78.63
50310;BME280;36207;51.850;21.698;2023-04-01T02:36:12;97932.22;;;9.23;78.51
50310;BME280;36207;51.850;21.698;2023-04-01T02:38:40;97934.65;;;9.20;78.39
50310;BME280;36207;51.850;21.698;2023-04-01T02:41:07;97932.23;;;9.16;78.26
50310;BME280;36207;51.850;21.698;2023-04-01T02:43:33;97933.76;;;9.12;78.26
50310;BME280;36207;51.850;21.698;2023-04-01T02:45:59;97935.48;;;9.11;78.26
50310;BME280;36207;51.850;21.698;2023-04-01T02:48:29;97942.23;;;9.08;78.25
50310;BME280;36207;51.850;21.698;2023-04-01T02:50:55;97943.50;;;9.04;78.20
50310;BME280;36207;51.850;21.698;2023-04-01T02:53:21;97941.84;;;9.03;78.15
50310;BME280;36207;51.850;21.698;2023-04-01T02:55:47;97946.05;;;8.99;78.06
50310;BME280;36207;51.850;21.698;2023-04-01T02:58:16;97945.49;;;8.98;78.19
50310;BME280;36207;51.850;21.698;2023-04-01T03:00:42;97947.83;;;8.98;78.15
50310;BME280;36207;51.850;21.698;2023-04-01T03:03:09;97946.64;;;8.97;78.31
50310;BME280;36207;51.850;21.698;2023-04-01T03:05:35;97950.30;;;8.97;78.42
50310;BME280;36207;51.850;21.698;2023-04-01T03:08:02;97953.55;;;8.99;78.74
50310;BME280;36207;51.850;21.698;2023-04-01T03:10:28;97956.63;;;9.02;78.76
50310;BME280;36207;51.850;21.698;2023-04-01T03:12:54;97956.40;;;9.05;78.72
50310;BME280;36207;51.850;21.698;2023-04-01T03:15:20;97958.66;;;9.08;79.09
50310;BME280;36207;51.850;21.698;2023-04-01T03:17:46;97959.95;;;9.10;79.07
50310;BME280;36207;51.850;21.698;2023-04-01T03:20:13;97959.04;;;9.08;78.93
50310;BME280;36207;51.850;21.698;2023-04-01T03:22:39;97960.22;;;9.08;78.92
50310;BME280;36207;51.850;21.698;2023-04-01T03:25:06;97960.92;;;9.10;78.85
50310;BME280;36207;51.850;21.698;2023-04-01T03:27:34;97959.03;;;9.12;78.80
50310;BME280;36207;51.850;21.698;2023-04-01T03:30:03;97962.98;;;9.14;78.83
50310;BME280;36207;51.850;21.698;2023-04-01T03:32:29;97961.67;;;9.15;78.79
50310;BME280;36207;51.850;21.698;2023-04-01T03:34:55;97963.92;;;9.14;78.69
50310;BME280;36207;51.850;21.698;2023-04-01T03:37:21;97963.73;;;9.14;78.66
50310;BME280;36207;51.850;21.698;2023-04-01T03:39:47;97966.71;;;9.15;78.66
50310;BME280;36207;51.850;21.698;2023-04-01T03:42:13;97961.76;;;9.14;78.78
50310;BME280;36207;51.850;21.698;2023-04-01T03:44:39;97969.11;;;9.16;78.67
50310;BME280;36207;51.850;21.698;2023-04-01T03:47:05;97967.09;;;9.15;78.66
50310;BME280;36207;51.850;21.698;2023-04-01T03:49:31;97974.95;;;9.13;78.60
50310;BME280;36207;51.850;21.698;2023-04-01T03:51:58;97977.39;;;9.12;78.65
50310;BME280;36207;51.850;21.698;2023-04-01T03:54:24;97985.84;;;9.11;78.59
50310;BME280;36207;51.850;21.698;2023-04-01T03:56:50;97994.31;;;9.10;78.80
50310;BME280;36207;51.850;21.698;2023-04-01T03:59:16;97990.48;;;9.09;78.71
50310;BME280;36207;51.850;21.698;2023-04-01T04:01:42;97992.61;;;9.10;78.88
50310;BME280;36207;51.850;21.698;2023-04-01T04:04:11;97989.81;;;9.11;78.80
50310;BME280;36207;51.850;21.698;2023-04-01T04:06:38;97988.31;;;9.09;78.87
50310;BME280;36207;51.850;21.698;2023-04-01T04:09:08;97989.13;;;9.09;78.97
50310;BME280;36207;51.850;21.698;2023-04-01T04:11:33;97985.63;;;9.11;78.89
50310;BME280;36207;51.850;21.698;2023-04-01T04:14:00;97990.11;;;9.14;78.89
50310;BME280;36207;51.850;21.698;2023-04-01T04:16:26;97998.25;;;9.15;79.01
50310;BME280;36207;51.850;21.698;2023-04-01T04:18:52;98003.39;;;9.14;79.01
50310;BME280;36207;51.850;21.698;2023-04-01T04:21:18;98007.08;;;9.13;78.97
50310;BME280;36207;51.850;21.698;2023-04-01T04:23:44;98011.70;;;9.13;79.13
50310;BME280;36207;51.850;21.698;2023-04-01T04:26:12;98007.39;;;9.14;79.14
50310;BME280;36207;51.850;21.698;2023-04-01T04:28:39;98012.81;;;9.17;79.22
50310;BME280;36207;51.850;21.698;2023-04-01T04:31:05;98020.98;;;9.20;79.22
50310;BME280;36207;51.850;21.698;2023-04-01T04:33:33;98021.60;;;9.19;79.26
50310;BME280;36207;51.850;21.698;2023-04-01T04:35:59;98022.51;;;9.19;79.21
50310;BME280;36207;51.850;21.698;2023-04-01T04:38:26;98022.77;;;9.21;79.20
50310;BME280;36207;51.850;21.698;2023-04-01T04:40:52;98024.77;;;9.22;79.29
50310;BME280;36207;51.850;21.698;2023-04-01T04:43:18;98022.48;;;9.18;79.22
50310;BME280;36207;51.850;21.698;2023-04-01T04:45:44;98021.67;;;9.16;79.35
50310;BME280;36207;51.850;21.698;2023-04-01T04:48:13;98026.77;;;9.14;79.22
50310;BME280;36207;51.850;21.698;2023-04-01T04:50:48;98032.59;;;9.14;79.30
50310;BME280;36207;51.850;21.698;2023-04-01T04:53:16;98032.25;;;9.15;79.44
50310;BME280;36207;51.850;21.698;2023-04-01T04:55:44;98031.64;;;9.18;79.26
50310;BME280;36207;51.850;21.698;2023-04-01T04:58:10;98031.39;;;9.19;79.38
50310;BME280;36207;51.850;21.698;2023-04-01T05:00:38;98026.27;;;9.20;79.35
50310;BME280;36207;51.850;21.698;2023-04-01T05:03:04;98023.55;;;9.22;79.29
50310;BME280;36207;51.850;21.698;2023-04-01T05:05:31;98027.76;;;9.24;79.41
50310;BME280;36207;51.850;21.698;2023-04-01T05:07:57;98029.00;;;9.26;79.43
50310;BME280;36207;51.850;21.698;2023-04-01T05:10:23;98029.23;;;9.28;79.55
50310;BME280;36207;51.850;21.698;2023-04-01T05:12:49;98030.02;;;9.30;79.40
50310;BME280;36207;51.850;21.698;2023-04-01T05:15:15;98033.38;;;9.30;79.38
50310;BME280;36207;51.850;21.698;2023-04-01T05:17:41;98033.85;;;9.28;79.21
50310;BME280;36207;51.850;21.698;2023-04-01T05:20:07;98041.63;;;9.26;79.12
50310;BME280;36207;51.850;21.698;2023-04-01T05:22:36;98044.45;;;9.26;79.27
50310;BME280;36207;51.850;21.698;2023-04-01T05:25:02;98044.35;;;9.28;79.42
50310;BME280;36207;51.850;21.698;2023-04-01T05:27:28;98045.15;;;9.30;79.46
50310;BME280;36207;51.850;21.698;2023-04-01T05:29:54;98042.84;;;9.32;79.62
50310;BME280;36207;51.850;21.698;2023-04-01T05:32:20;98043.69;;;9.37;79.80
50310;BME280;36207;51.850;21.698;2023-04-01T05:34:46;98044.31;;;9.44;79.84
50310;BME280;36207;51.850;21.698;2023-04-01T05:37:12;98045.14;;;9.50;79.90
50310;BME280;36207;51.850;21.698;2023-04-01T05:39:38;98042.21;;;9.54;80.12
50310;BME280;36207;51.850;21.698;2023-04-01T05:42:06;98046.84;;;9.59;80.23
50310;BME280;36207;51.850;21.698;2023-04-01T05:44:35;98038.85;;;9.62;80.20
50310;BME280;36207;51.850;21.698;2023-04-01T05:47:02;98036.01;;;9.69;80.21
50310;BME280;36207;51.850;21.698;2023-04-01T05:49:29;98036.86;;;9.76;80.33
50310;BME280;36207;51.850;21.698;2023-04-01T05:51:56;98035.60;;;9.81;80.16
50310;BME280;36207;51.850;21.698;2023-04-01T05:54:22;98035.84;;;9.86;80.25
50310;BME280;36207;51.850;21.698;2023-04-01T05:56:48;98030.83;;;9.94;80.16
50310;BME280;36207;51.850;21.698;2023-04-01T05:59:15;98035.11;;;10.03;80.32
50310;BME280;36207;51.850;21.698;2023-04-01T06:01:41;98035.70;;;10.15;80.50
50310;BME280;36207;51.850;21.698;2023-04-01T06:04:13;98034.71;;;10.22;80.41
50310;BME280;36207;51.850;21.698;2023-04-01T06:06:39;98035.61;;;10.25;80.32
50310;BME280;36207;51.850;21.698;2023-04-01T06:09:17;98033.73;;;10.23;80.28
50310;BME280;36207;51.850;21.698;2023-04-01T06:20:23;98030.16;;;10.11;80.26
50310;BME280;36207;51.850;21.698;2023-04-01T06:31:14;98032.33;;;10.15;80.43
50310;BME280;36207;51.850;21.698;2023-04-01T06:53:05;98026.65;;;10.38;80.16
50310;BME280;36207;51.850;21.698;2023-04-01T06:55:44;98025.02;;;10.42;80.02
50310;BME280;36207;51.850;21.698;2023-04-01T06:58:36;98026.73;;;10.47;80.08
50310;BME280;36207;51.850;21.698;2023-04-01T07:01:06;98031.88;;;10.55;80.25
50310;BME280;36207;51.850;21.698;2023-04-01T07:03:40;98029.54;;;10.65;80.23
50310;BME280;36207;51.850;21.698;2023-04-01T07:06:13;98032.67;;;10.81;80.27
50310;BME280;36207;51.850;21.698;2023-04-01T07:08:42;98035.92;;;10.96;80.36
50310;BME280;36207;51.850;21.698;2023-04-01T07:11:15;98039.95;;;11.06;79.85
50310;BME280;36207;51.850;21.698;2023-04-01T07:13:54;98038.95;;;11.06;79.50
50310;BME280;36207;51.850;21.698;2023-04-01T07:16:40;98038.88;;;11.12;79.77
50310;BME280;36207;51.850;21.698;2023-04-01T07:24:39;98043.40;;;11.49;79.35
50310;BME280;36207;51.850;21.698;2023-04-01T07:27:11;98043.73;;;11.50;79.08
50310;BME280;36207;51.850;21.698;2023-04-01T07:29:38;98043.16;;;11.52;79.17
50310;BME280;36207;51.850;21.698;2023-04-01T07:34:55;98049.20;;;11.48;78.81
50310;BME280;36207;51.850;21.698;2023-04-01T07:50:43;98050.98;;;11.11;78.58
50310;BME280;36207;51.850;21.698;2023-04-01T07:58:33;98058.02;;;11.13;78.11
50310;BME280;36207;51.850;21.698;2023-04-01T08:06:47;98065.94;;;11.21;78.30
50310;BME280;36207;51.850;21.698;2023-04-01T08:17:20;98079.61;;;11.32;78.37
50310;BME280;36207;51.850;21.698;2023-04-01T08:28:29;98082.44;;;11.38;77.14
50310;BME280;36207;51.850;21.698;2023-04-01T08:31:31;98082.64;;;11.38;77.08
50310;BME280;36207;51.850;21.698;2023-04-01T08:34:03;98080.25;;;11.38;77.18
50310;BME280;36207;51.850;21.698;2023-04-01T08:36:43;98076.92;;;11.38;77.08
50310;BME280;36207;51.850;21.698;2023-04-01T08:39:22;98078.45;;;11.37;77.11
50310;BME280;36207;51.850;21.698;2023-04-01T08:44:59;98080.30;;;11.31;77.06
50310;BME280;36207;51.850;21.698;2023-04-01T08:50:23;98076.53;;;11.32;77.30
50310;BME280;36207;51.850;21.698;2023-04-01T08:55:46;98078.09;;;11.39;77.28
50310;BME280;36207;51.850;21.698;2023-04-01T09:20:58;98068.61;;;12.52;76.57
50310;BME280;36207;51.850;21.698;2023-04-01T09:28:42;98074.33;;;12.55;76.10
50310;BME280;36207;51.850;21.698;2023-04-01T09:31:38;98076.59;;;12.49;75.71
50310;BME280;36207;51.850;21.698;2023-04-01T09:40:09;98086.13;;;12.19;74.82
50310;BME280;36207;51.850;21.698;2023-04-01T09:43:25;98087.43;;;12.13;74.78
50310;BME280;36207;51.850;21.698;2023-04-01T10:09:57;98089.98;;;12.93;74.68
50310;BME280;36207;51.850;21.698;2023-04-01T10:18:27;98092.25;;;12.80;73.19
50310;BME280;36207;51.850;21.698;2023-04-01T10:32:09;98093.77;;;12.60;73.56
50310;BME280;36207;51.850;21.698;2023-04-01T10:38:21;98094.63;;;12.52;73.08
50310;BME280;36207;51.850;21.698;2023-04-01T10:43:24;98093.16;;;12.43;72.98
50310;BME280;36207;51.850;21.698;2023-04-01T11:00:12;98091.18;;;12.39;72.79
50310;BME280;36207;51.850;21.698;2023-04-01T11:14:40;98100.37;;;12.39;72.76
50310;BME280;36207;51.850;21.698;2023-04-01T11:19:59;98097.02;;;12.32;72.69
50310;BME280;36207;51.850;21.698;2023-04-01T11:25:46;98093.49;;;12.33;72.65
50310;BME280;36207;51.850;21.698;2023-04-01T11:28:34;98093.66;;;12.33;72.69
50310;BME280;36207;51.850;21.698;2023-04-01T11:40:26;98095.63;;;12.32;72.79
50310;BME280;36207;51.850;21.698;2023-04-01T11:43:09;98091.11;;;12.33;72.90
50310;BME280;36207;51.850;21.698;2023-04-01T11:45:49;98094.08;;;12.37;72.94
50310;BME280;36207;51.850;21.698;2023-04-01T11:48:49;98094.84;;;12.38;72.49
50310;BME280;36207;51.850;21.698;2023-04-01T11:54:11;98087.75;;;12.40;72.67
50310;BME280;36207;51.850;21.698;2023-04-01T12:01:44;98091.21;;;12.55;72.80
50310;BME280;36207;51.850;21.698;2023-04-01T12:09:52;98082.81;;;12.72;72.36
50310;BME280;36207;51.850;21.698;2023-04-01T12:12:46;98086.01;;;12.75;72.16
50310;BME280;36207;51.850;21.698;2023-04-01T12:18:36;98089.94;;;12.72;72.02
50310;BME280;36207;51.850;21.698;2023-04-01T12:29:24;98084.55;;;13.10;72.01
50310;BME280;36207;51.850;21.698;2023-04-01T12:32:20;98088.09;;;13.14;71.82
50310;BME280;36207;51.850;21.698;2023-04-01T13:03:12;98086.54;;;12.63;71.35
50310;BME280;36207;51.850;21.698;2023-04-01T13:14:48;98101.74;;;12.62;71.38
50310;BME280;36207;51.850;21.698;2023-04-01T13:17:23;98103.64;;;12.62;71.14
50310;BME280;36207;51.850;21.698;2023-04-01T13:25:44;98128.76;;;12.42;71.63
50310;BME280;36207;51.850;21.698;2023-04-01T13:28:18;98135.31;;;12.25;72.28
50310;BME280;36207;51.850;21.698;2023-04-01T13:31:01;98132.91;;;12.06;72.59
50310;BME280;36207;51.850;21.698;2023-04-01T13:42:14;98149.54;;;11.68;73.59
50310;BME280;36207;51.850;21.698;2023-04-01T13:44:48;98157.04;;;11.67;73.63
50310;BME280;36207;51.850;21.698;2023-04-01T13:50:34;98160.54;;;11.69;73.60
50310;BME280;36207;51.850;21.698;2023-04-01T14:01:23;98162.61;;;11.67;74.31
50310;BME280;36207;51.850;21.698;2023-04-01T14:04:17;98162.33;;;11.71;74.38
50310;BME280;36207;51.850;21.698;2023-04-01T14:09:35;98161.17;;;11.78;74.32
50310;BME280;36207;51.850;21.698;2023-04-01T14:18:01;98168.45;;;12.03;74.69
50310;BME280;36207;51.850;21.698;2023-04-01T14:20:53;98170.23;;;12.06;75.02
50310;BME280;36207;51.850;21.698;2023-04-01T14:29:29;98166.05;;;12.08;75.30
50310;BME280;36207;51.850;21.698;2023-04-01T14:40:43;98172.88;;;12.13;74.62
50310;BME280;36207;51.850;21.698;2023-04-01T14:48:58;98180.68;;;12.05;74.59
50310;BME280;36207;51.850;21.698;2023-04-01T14:51:34;98180.67;;;12.06;74.72
50310;BME280;36207;51.850;21.698;2023-04-01T14:54:13;98185.13;;;12.07;74.80
50310;BME280;36207;51.850;21.698;2023-04-01T14:56:50;98181.04;;;12.06;74.66
50310;BME280;36207;51.850;21.698;2023-04-01T15:10:12;98193.31;;;12.02;74.63
50310;BME280;36207;51.850;21.698;2023-04-01T15:12:57;98193.20;;;11.98;74.77
50310;BME280;36207;51.850;21.698;2023-04-01T15:18:08;98194.13;;;11.99;74.65
50310;BME280;36207;51.850;21.698;2023-04-01T15:26:23;98200.94;;;11.98;74.35
50310;BME280;36207;51.850;21.698;2023-04-01T15:31:54;98200.35;;;11.99;74.45
50310;BME280;36207;51.850;21.698;2023-04-01T15:34:32;98207.53;;;12.04;74.60
50310;BME280;36207;51.850;21.698;2023-04-01T15:40:24;98212.20;;;12.17;74.57
50310;BME280;36207;51.850;21.698;2023-04-01T15:43:03;98214.63;;;12.20;74.63
50310;BME280;36207;51.850;21.698;2023-04-01T15:45:51;98215.09;;;12.22;74.65
50310;BME280;36207;51.850;21.698;2023-04-01T16:00:06;98221.48;;;12.15;74.77
50310;BME280;36207;51.850;21.698;2023-04-01T16:13:59;98234.87;;;12.35;74.71
50310;BME280;36207;51.850;21.698;2023-04-01T16:27:36;98250.45;;;12.18;74.72
50310;BME280;36207;51.850;21.698;2023-04-01T16:35:41;98259.76;;;11.97;74.50
50310;BME280;36207;51.850;21.698;2023-04-01T16:41:19;98271.27;;;11.90;74.77
50310;BME280;36207;51.850;21.698;2023-04-01T16:43:57;98273.79;;;11.86;74.95
50310;BME280;36207;51.850;21.698;2023-04-01T16:46:44;98278.11;;;11.85;74.98
50310;BME280;36207;51.850;21.698;2023-04-01T16:59:37;98293.17;;;11.76;75.11
50310;BME280;36207;51.850;21.698;2023-04-01T17:04:51;98298.45;;;11.72;75.28
50310;BME280;36207;51.850;21.698;2023-04-01T17:15:40;98319.94;;;11.51;75.57
50310;BME280;36207;51.850;21.698;2023-04-01T17:18:11;98322.16;;;11.44;75.61
50310;BME280;36207;51.850;21.698;2023-04-01T17:20:56;98324.70;;;11.30;75.60
50310;BME280;36207;51.850;21.698;2023-04-01T17:26:42;98330.96;;;11.11;75.95
50310;BME280;36207;51.850;21.698;2023-04-01T17:29:24;98331.85;;;11.03;75.85
50310;BME280;36207;51.850;21.698;2023-04-01T17:35:16;98340.99;;;10.92;75.90
50310;BME280;36207;51.850;21.698;2023-04-01T17:46:02;98360.72;;;10.85;76.35
50310;BME280;36207;51.850;21.698;2023-04-01T17:48:53;98366.73;;;10.79;76.26
50310;BME280;36207;51.850;21.698;2023-04-01T17:51:34;98368.92;;;10.78;76.13
50310;BME280;36207;51.850;21.698;2023-04-01T18:21:47;98416.13;;;10.33;76.80
50310;BME280;36207;51.850;21.698;2023-04-01T18:27:16;98425.60;;;10.23;76.57
50310;BME280;36207;51.850;21.698;2023-04-01T18:29:55;98431.17;;;10.17;76.50
50310;BME280;36207;51.850;21.698;2023-04-01T18:32:35;98435.52;;;10.12;76.42
50310;BME280;36207;51.850;21.698;2023-04-01T18:35:19;98439.17;;;10.12;76.59
50310;BME280;36207;51.850;21.698;2023-04-01T18:38:18;98443.21;;;10.15;76.74
50310;BME280;36207;51.850;21.698;2023-04-01T18:41:07;98446.10;;;10.14;76.99
50310;BME280;36207;51.850;21.698;2023-04-01T18:46:24;98455.84;;;10.02;76.84
50310;BME280;36207;51.850;21.698;2023-04-01T18:49:29;98458.85;;;10.00;76.72
50310;BME280;36207;51.850;21.698;2023-04-01T18:52:10;98465.66;;;10.01;76.77
50310;BME280;36207;51.850;21.698;2023-04-01T18:54:48;98465.86;;;10.01;76.98
50310;BME280;36207;51.850;21.698;2023-04-01T18:57:18;98469.95;;;9.96;77.07
50310;BME280;36207;51.850;21.698;2023-04-01T18:59:55;98473.79;;;9.91;77.01
50310;BME280;36207;51.850;21.698;2023-04-01T19:07:54;98486.73;;;9.75;76.99
50310;BME280;36207;51.850;21.698;2023-04-01T19:10:49;98484.06;;;9.75;76.87
50310;BME280;36207;51.850;21.698;2023-04-01T19:21:43;98501.33;;;9.65;77.00
50310;BME280;36207;51.850;21.698;2023-04-01T19:24:16;98507.19;;;9.62;76.89
50310;BME280;36207;51.850;21.698;2023-04-01T19:27:15;98505.92;;;9.59;76.93
50310;BME280;36207;51.850;21.698;2023-04-01T19:52:07;98541.52;;;9.38;77.10
50310;BME280;36207;51.850;21.698;2023-04-01T20:02:53;98553.22;;;9.26;77.30
50310;BME280;36207;51.850;21.698;2023-04-01T20:05:34;98559.54;;;9.25;77.34
50310;BME280;36207;51.850;21.698;2023-04-01T20:08:17;98562.90;;;9.24;77.41
50310;BME280;36207;51.850;21.698;2023-04-01T20:11:00;98565.15;;;9.19;77.57
50310;BME280;36207;51.850;21.698;2023-04-01T20:13:50;98567.32;;;9.16;77.73
50310;BME280;36207;51.850;21.698;2023-04-01T20:16:20;98571.86;;;9.12;77.67
50310;BME280;36207;51.850;21.698;2023-04-01T20:21:27;98582.19;;;9.12;77.94
50310;BME280;36207;51.850;21.698;2023-04-01T20:26:32;98587.10;;;9.05;77.83
50310;BME280;36207;51.850;21.698;2023-04-01T20:29:27;98594.15;;;9.05;77.74
50310;BME280;36207;51.850;21.698;2023-04-01T20:32:11;98592.73;;;9.07;77.85
50310;BME280;36207;51.850;21.698;2023-04-01T20:40:45;98603.86;;;9.02;77.84
50310;BME280;36207;51.850;21.698;2023-04-01T20:43:53;98606.55;;;9.01;77.93
50310;BME280;36207;51.850;21.698;2023-04-01T20:46:48;98608.94;;;9.02;77.91
50310;BME280;36207;51.850;21.698;2023-04-01T21:03:34;98635.06;;;8.92;77.95
50310;BME280;36207;51.850;21.698;2023-04-01T21:11:29;98645.87;;;8.90;78.05
50310;BME280;36207;51.850;21.698;2023-04-01T21:17:12;98653.65;;;8.90;78.15
50310;BME280;36207;51.850;21.698;2023-04-01T21:33:59;98665.80;;;8.85;78.31
50310;BME280;36207;51.850;21.698;2023-04-01T21:42:25;98670.38;;;8.82;78.30
50310;BME280;36207;51.850;21.698;2023-04-01T21:45:02;98669.83;;;8.78;78.33
50310;BME280;36207;51.850;21.698;2023-04-01T21:50:14;98679.84;;;8.67;78.40
50310;BME280;36207;51.850;21.698;2023-04-01T22:13:10;98711.00;;;8.61;78.41
50310;BME280;36207;51.850;21.698;2023-04-01T22:18:45;98712.81;;;8.62;78.32
50310;BME280;36207;51.850;21.698;2023-04-01T22:24:03;98715.12;;;8.57;78.24
50310;BME280;36207;51.850;21.698;2023-04-01T22:26:50;98719.37;;;8.55;78.28
50310;BME280;36207;51.850;21.698;2023-04-01T22:32:16;98725.53;;;8.61;78.35
50310;BME280;36207;51.850;21.698;2023-04-01T22:42:52;98746.41;;;8.52;78.12
50310;BME280;36207;51.850;21.698;2023-04-01T22:51:07;98752.04;;;8.37;78.29
50310;BME280;36207;51.850;21.698;2023-04-01T22:53:57;98752.37;;;8.33;78.27
50310;BME280;36207;51.850;21.698;2023-04-01T22:56:38;98752.65;;;8.32;78.28
50310;BME280;36207;51.850;21.698;2023-04-01T22:59:12;98759.71;;;8.36;78.41
50310;BME280;36207;51.850;21.698;2023-04-01T23:01:47;98760.38;;;8.37;78.43
50310;BME280;36207;51.850;21.698;2023-04-01T23:04:23;98763.91;;;8.33;78.36
50310;BME280;36207;51.850;21.698;2023-04-01T23:06:57;98768.04;;;8.32;78.44
50310;BME280;36207;51.850;21.698;2023-04-01T23:09:28;98769.75;;;8.31;78.47
50310;BME280;36207;51.850;21.698;2023-04-01T23:38:15;98796.07;;;8.10;78.74
50310;BME280;36207;51.850;21.698;2023-04-01T23:40:42;98797.00;;;8.08;78.70
50310;BME280;36207;51.850;21.698;2023-04-01T23:43:36;98797.68;;;8.05;78.62
50310;BME280;36207;51.850;21.698;2023-04-01T23:46:03;98800.42;;;8.00;78.77
50310;BME280;36207;51.850;21.698;2023-04-01T23:48:43;98801.84;;;7.95;78.75
50310;BME280;36207;51.850;21.698;2023-04-01T23:51:22;98803.90;;;7.91;78.93
50310;BME280;36207;51.850;21.698;2023-04-01T23:54:04;98810.62;;;7.89;78.92
50310;BME280;36207;51.850;21.698;2023-04-01T23:56:46;98812.02;;;7.89;79.13
50310;BME280;36207;51.850;21.698;2023-04-01T23:59:35;98815.21;;;7.90;79.08
